createdAt,value
2018-02-20T00:02:29.007Z,22.20
2018-02-20T00:04:58.287Z,26.60
2018-02-20T00:07:27.553Z,22.07
2018-02-20T00:09:56.833Z,35.70
2018-02-20T00:12:26.154Z,27.27
2018-02-20T00:14:55.435Z,30.47
2018-02-20T00:17:24.710Z,32.90
2018-02-20T00:19:53.967Z,27.70
2018-02-20T00:22:23.492Z,36.77
2018-02-20T00:24:52.753Z,32.93
2018-02-20T00:27:22.025Z,31.87
2018-02-20T00:29:51.294Z,33.47
2018-02-20T00:32:21.341Z,27.17
2018-02-20T00:34:50.589Z,35.47
2018-02-20T00:37:19.945Z,27.80
2018-02-20T00:39:49.194Z,24.90
2018-02-20T00:42:18.471Z,29.87
2018-02-20T00:44:47.723Z,35.23
2018-02-20T00:47:17.762Z,27.07
2018-02-20T00:49:47.029Z,26.70
2018-02-20T00:52:16.273Z,35.00
2018-02-20T00:54:45.547Z,24.63
2018-02-20T00:57:15.564Z,33.83
2018-02-20T00:59:44.829Z,46.97
2018-02-20T01:02:14.110Z,27.43
2018-02-20T01:04:43.516Z,21.63
2018-02-20T01:07:12.786Z,26.67
2018-02-20T01:09:42.167Z,35.67
2018-02-20T01:12:11.454Z,24.83
2018-02-20T01:14:40.736Z,20.33
2018-02-20T01:17:10.015Z,31.73
2018-02-20T01:19:39.314Z,23.97
2018-02-20T01:22:08.561Z,29.80
2018-02-20T01:24:37.828Z,27.80
2018-02-20T01:27:07.080Z,28.87
2018-02-20T01:29:37.170Z,23.10
2018-02-20T01:32:06.420Z,28.03
2018-02-20T01:34:35.674Z,30.97
2018-02-20T01:37:05.062Z,24.60
2018-02-20T01:39:34.337Z,31.80
2018-02-20T01:42:03.597Z,23.37
2018-02-20T01:44:32.933Z,35.60
2018-02-20T01:47:02.225Z,34.03
2018-02-20T01:49:31.513Z,31.63
2018-02-20T01:52:00.905Z,30.37
2018-02-20T01:54:30.948Z,27.00
2018-02-20T01:57:00.382Z,35.80
2018-02-20T01:59:29.643Z,30.97
2018-02-20T02:01:58.909Z,34.27
2018-02-20T02:04:28.159Z,30.00
2018-02-20T02:06:57.647Z,35.60
2018-02-20T02:09:26.911Z,40.30
2018-02-20T02:11:56.173Z,31.47
2018-02-20T02:14:25.431Z,31.53
2018-02-20T02:16:55.465Z,32.80
2018-02-20T02:19:24.732Z,26.87
2018-02-20T02:21:53.988Z,31.30
2018-02-20T02:24:23.251Z,30.07
2018-02-20T02:26:52.506Z,30.77
2018-02-20T02:29:21.818Z,23.77
2018-02-20T02:31:51.022Z,34.03
2018-02-20T02:34:20.276Z,35.27
2018-02-20T02:36:49.524Z,34.13
2018-02-20T02:39:18.776Z,32.00
2018-02-20T02:41:48.013Z,31.30
2018-02-20T02:44:17.254Z,22.83
2018-02-20T02:46:47.276Z,42.03
2018-02-20T02:49:16.597Z,23.07
2018-02-20T02:51:47.326Z,28.80
2018-02-20T02:54:16.759Z,27.77
2018-02-20T02:56:46.041Z,27.33
2018-02-20T02:59:15.302Z,20.50
2018-02-20T03:01:44.590Z,25.23
2018-02-20T03:04:13.805Z,33.40
2018-02-20T03:06:43.058Z,32.60
2018-02-20T03:09:12.318Z,25.37
2018-02-20T03:11:42.322Z,23.60
2018-02-20T03:14:11.575Z,24.47
2018-02-20T03:16:40.836Z,21.90
2018-02-20T03:19:10.111Z,27.37
2018-02-20T03:21:39.361Z,23.50
2018-02-20T03:24:08.702Z,19.70
2018-02-20T03:26:37.929Z,20.97
2018-02-20T03:29:07.300Z,26.70
2018-02-20T03:31:36.555Z,20.30
2018-02-20T03:34:06.770Z,33.10
2018-02-20T03:36:36.785Z,22.20
2018-02-20T03:39:06.802Z,20.97
2018-02-20T03:41:36.033Z,18.03
2018-02-20T03:44:05.292Z,21.50
2018-02-20T03:46:34.556Z,17.80
2018-02-20T03:49:03.810Z,21.40
2018-02-20T03:51:33.836Z,24.70
2018-02-20T03:54:03.079Z,15.07
2018-02-20T03:56:32.329Z,26.67
2018-02-20T03:59:02.349Z,28.10
2018-02-20T04:01:31.608Z,15.77
2018-02-20T04:04:00.850Z,17.87
2018-02-20T04:06:30.955Z,23.43
2018-02-20T04:09:00.193Z,19.67
2018-02-20T04:11:29.446Z,15.17
2018-02-20T04:14:00.192Z,12.30
2018-02-20T04:16:29.459Z,15.07
2018-02-20T04:18:59.556Z,12.37
2018-02-20T04:21:28.792Z,13.80
2018-02-20T04:23:58.300Z,16.57
2018-02-20T04:26:27.695Z,15.70
2018-02-20T04:28:56.985Z,17.67
2018-02-20T04:31:26.231Z,22.23
2018-02-20T04:33:55.462Z,18.53
2018-02-20T04:36:24.729Z,23.40
2018-02-20T04:38:53.961Z,14.43
2018-02-20T04:41:23.224Z,20.33
2018-02-20T04:43:52.476Z,18.80
2018-02-20T04:46:21.743Z,18.03
2018-02-20T04:48:51.074Z,14.13
2018-02-20T04:51:20.345Z,18.00
2018-02-20T04:53:49.633Z,19.10
2018-02-20T04:56:18.870Z,14.03
2018-02-20T04:58:48.161Z,16.17
2018-02-20T05:01:18.057Z,16.37
2018-02-20T05:03:47.338Z,13.30
2018-02-20T05:06:16.597Z,15.40
2018-02-20T05:08:45.864Z,13.17
2018-02-20T05:11:15.114Z,15.80
2018-02-20T05:13:44.404Z,18.47
2018-02-20T05:16:13.663Z,15.00
2018-02-20T05:18:43.677Z,18.60
2018-02-20T05:21:12.954Z,15.33
2018-02-20T05:23:42.202Z,12.97
2018-02-20T05:26:11.482Z,16.93
2018-02-20T05:28:40.713Z,14.00
2018-02-20T05:31:09.966Z,18.07
2018-02-20T05:33:39.238Z,14.07
2018-02-20T05:36:09.138Z,16.37
2018-02-20T05:38:38.402Z,13.90
2018-02-20T05:41:08.434Z,16.63
2018-02-20T05:43:37.685Z,14.63
2018-02-20T05:46:06.990Z,20.65
2018-02-20T05:48:36.281Z,19.33
2018-02-20T05:51:05.530Z,18.53
2018-02-20T05:53:35.543Z,21.93
2018-02-20T05:56:04.796Z,17.07
2018-02-20T05:58:34.046Z,17.37
2018-02-20T06:01:04.055Z,18.40
2018-02-20T06:03:33.335Z,16.73
2018-02-20T06:06:02.590Z,10.90
2018-02-20T06:08:31.864Z,17.63
2018-02-20T06:11:01.877Z,20.10
2018-02-20T06:13:31.110Z,12.90
2018-02-20T06:16:00.572Z,15.37
2018-02-20T06:18:29.805Z,15.10
2018-02-20T06:20:59.061Z,16.00
2018-02-20T06:23:28.314Z,12.77
2018-02-20T06:25:57.614Z,24.93
2018-02-20T06:28:26.854Z,15.37
2018-02-20T06:30:56.101Z,13.07
2018-02-20T06:33:25.350Z,20.63
2018-02-20T06:35:54.638Z,23.17
2018-02-20T06:38:23.899Z,13.33
2018-02-20T06:40:53.916Z,20.20
2018-02-20T06:43:23.862Z,25.47
2018-02-20T06:45:53.078Z,19.13
2018-02-20T06:48:22.321Z,15.27
2018-02-20T06:50:52.338Z,16.40
2018-02-20T06:53:21.598Z,15.20
2018-02-20T06:55:50.835Z,20.67
2018-02-20T06:58:20.134Z,21.57
2018-02-20T07:00:49.394Z,19.63
2018-02-20T07:03:18.646Z,23.73
2018-02-20T07:05:47.912Z,19.40
2018-02-20T07:08:17.156Z,23.40
2018-02-20T07:10:47.267Z,21.33
2018-02-20T07:13:17.286Z,20.03
2018-02-20T07:15:46.547Z,21.30
2018-02-20T07:18:15.791Z,23.90
2018-02-20T07:20:45.821Z,19.87
2018-02-20T07:23:15.062Z,22.63
2018-02-20T07:25:44.372Z,19.73
2018-02-20T07:28:13.618Z,20.33
2018-02-20T07:30:43.638Z,25.13
2018-02-20T07:33:12.889Z,22.53
2018-02-20T07:35:42.146Z,19.20
2018-02-20T07:38:11.393Z,27.83
2018-02-20T07:40:40.636Z,21.13
2018-02-20T07:43:09.898Z,22.10
2018-02-20T07:45:39.135Z,25.47
2018-02-20T07:48:09.245Z,24.67
2018-02-20T07:50:38.639Z,23.70
2018-02-20T07:53:07.879Z,22.87
2018-02-20T07:55:37.153Z,19.87
2018-02-20T07:58:07.173Z,20.13
2018-02-20T08:00:36.411Z,17.00
2018-02-20T08:03:05.666Z,22.17
2018-02-20T08:05:35.677Z,29.33
2018-02-20T08:08:04.934Z,23.83
2018-02-20T08:10:34.191Z,25.17
2018-02-20T08:13:04.583Z,22.27
2018-02-20T08:15:33.813Z,27.10
2018-02-20T08:18:03.823Z,31.20
2018-02-20T08:20:33.131Z,22.87
2018-02-20T08:23:02.362Z,26.57
2018-02-20T08:25:31.623Z,34.23
2018-02-20T08:28:00.898Z,18.60
2018-02-20T08:30:30.136Z,22.70
2018-02-20T08:32:59.431Z,25.93
2018-02-20T08:35:28.666Z,27.67
2018-02-20T08:37:57.933Z,21.93
2018-02-20T08:40:28.053Z,18.43
2018-02-20T08:42:57.313Z,27.67
2018-02-20T08:45:26.565Z,41.93
2018-02-20T08:47:55.853Z,38.30
2018-02-20T08:50:25.120Z,41.20
2018-02-20T08:52:54.365Z,35.93
2018-02-20T08:55:24.421Z,30.07
2018-02-20T08:57:53.698Z,31.13
2018-02-20T09:00:22.973Z,30.00
2018-02-20T09:02:52.267Z,36.77
2018-02-20T09:05:21.558Z,36.33
2018-02-20T09:07:50.814Z,30.57
2018-02-20T09:10:20.105Z,29.17
2018-02-20T09:12:49.376Z,34.93
2018-02-20T09:15:19.457Z,43.30
2018-02-20T09:17:48.687Z,35.63
2018-02-20T09:20:17.942Z,37.30
2018-02-20T09:22:47.213Z,31.70
2018-02-20T09:25:17.305Z,35.83
2018-02-20T09:27:46.572Z,36.70
2018-02-20T09:30:15.854Z,37.00
2018-02-20T09:32:45.135Z,36.87
2018-02-20T09:35:14.413Z,37.57
2018-02-20T09:37:43.663Z,40.37
2018-02-20T09:40:12.941Z,40.03
2018-02-20T09:42:42.257Z,41.97
2018-02-20T09:45:11.533Z,38.37
2018-02-20T09:47:41.594Z,41.60
2018-02-20T09:50:10.841Z,40.67
2018-02-20T09:52:40.115Z,36.63
2018-02-20T09:55:09.375Z,43.87
2018-02-20T09:57:38.653Z,40.13
2018-02-20T10:00:08.677Z,41.73
2018-02-20T10:02:37.984Z,38.77
2018-02-20T10:05:07.470Z,36.43
2018-02-20T10:07:36.749Z,39.60
2018-02-20T10:10:05.993Z,38.03
2018-02-20T10:12:35.296Z,40.77
2018-02-20T10:15:04.553Z,41.30
2018-02-20T10:17:34.006Z,44.10
2018-02-20T10:20:03.296Z,53.93
2018-02-20T10:22:32.607Z,46.90
2018-02-20T10:25:01.872Z,39.27
2018-02-20T10:27:31.142Z,40.83
2018-02-20T10:30:00.493Z,37.50
2018-02-20T10:32:29.783Z,48.77
2018-02-20T10:34:59.050Z,47.40
2018-02-20T10:37:28.343Z,35.30
2018-02-20T10:39:57.602Z,43.17
2018-02-20T10:42:26.872Z,42.20
2018-02-20T10:44:56.136Z,37.57
2018-02-20T10:47:25.421Z,36.37
2018-02-20T10:49:54.698Z,40.30
2018-02-20T10:52:23.965Z,41.70
2018-02-20T10:54:53.221Z,44.50
2018-02-20T10:57:22.501Z,46.40
2018-02-20T10:59:52.035Z,54.83
2018-02-20T11:02:21.335Z,58.70
2018-02-20T11:04:50.589Z,53.03
2018-02-20T11:07:19.858Z,47.13
2018-02-20T11:09:49.966Z,48.63
2018-02-20T11:12:19.248Z,44.57
2018-02-20T11:14:48.502Z,48.80
2018-02-20T11:17:17.753Z,51.00
2018-02-20T11:19:47.779Z,45.50
2018-02-20T11:22:17.037Z,38.30
2018-02-20T11:24:46.275Z,32.40
2018-02-20T11:27:16.305Z,32.40
2018-02-20T11:29:45.678Z,40.77
2018-02-20T11:32:15.715Z,34.57
2018-02-20T11:34:45.021Z,31.60
2018-02-20T11:37:14.279Z,32.53
2018-02-20T11:39:45.098Z,28.30
2018-02-20T11:42:14.685Z,35.93
2018-02-20T11:44:43.990Z,31.77
2018-02-20T11:47:13.312Z,30.83
2018-02-20T11:49:42.762Z,30.77
2018-02-20T11:52:12.889Z,27.20
2018-02-20T11:54:42.152Z,33.13
2018-02-20T11:57:11.401Z,32.90
2018-02-20T11:59:40.721Z,35.57
2018-02-20T12:02:10.005Z,27.00
2018-02-20T12:04:39.254Z,31.17
2018-02-20T12:07:08.507Z,38.67
2018-02-20T12:09:37.771Z,34.33
2018-02-20T12:12:07.794Z,33.57
2018-02-20T12:14:37.087Z,30.83
2018-02-20T12:17:06.502Z,33.63
2018-02-20T12:19:36.546Z,33.10
2018-02-20T12:22:05.794Z,30.17
2018-02-20T12:24:35.050Z,26.30
2018-02-20T12:27:04.498Z,32.37
2018-02-20T12:29:33.753Z,36.87
2018-02-20T12:32:02.999Z,29.37
2018-02-20T12:34:32.283Z,38.90
2018-02-20T12:37:01.554Z,29.30
2018-02-20T12:39:30.822Z,35.17
2018-02-20T12:42:00.096Z,29.47
2018-02-20T12:44:29.394Z,38.10
2018-02-20T12:46:58.608Z,38.67
2018-02-20T12:49:27.902Z,42.70
2018-02-20T12:51:57.188Z,31.40
2018-02-20T12:54:26.443Z,33.73
2018-02-20T12:56:56.486Z,44.20
2018-02-20T12:59:25.726Z,32.50
2018-02-20T13:01:55.030Z,40.40
2018-02-20T13:04:24.274Z,34.63
2018-02-20T13:06:53.556Z,39.80
2018-02-20T13:09:23.577Z,40.00
2018-02-20T13:11:52.819Z,45.33
2018-02-20T13:14:22.102Z,31.30
2018-02-20T13:16:51.353Z,37.50
2018-02-20T13:19:20.613Z,36.40
2018-02-20T13:21:49.965Z,39.47
2018-02-20T13:24:19.239Z,41.30
2018-02-20T13:26:48.494Z,42.77
2018-02-20T13:29:17.793Z,35.30
2018-02-20T13:31:47.210Z,33.87
2018-02-20T13:34:16.506Z,34.73
2018-02-20T13:36:46.032Z,41.97
2018-02-20T13:39:15.289Z,37.77
2018-02-20T13:41:44.539Z,32.67
2018-02-20T13:44:13.787Z,30.93
2018-02-20T13:46:43.074Z,32.30
2018-02-20T13:49:12.328Z,27.93
2018-02-20T13:51:41.578Z,37.73
2018-02-20T13:54:10.860Z,33.60
2018-02-20T13:56:40.178Z,31.03
2018-02-20T13:59:09.406Z,24.63
2018-02-20T14:01:38.653Z,35.30
2018-02-20T14:04:07.927Z,33.03
2018-02-20T14:06:37.950Z,30.20
2018-02-20T14:09:07.195Z,36.03
2018-02-20T14:11:36.643Z,29.17
2018-02-20T14:14:05.897Z,29.53
2018-02-20T14:16:35.244Z,31.00
2018-02-20T14:19:05.475Z,27.47
2018-02-20T14:21:34.706Z,23.40
2018-02-20T14:24:03.946Z,29.30
2018-02-20T14:26:33.222Z,29.77
2018-02-20T14:29:02.516Z,32.70
2018-02-20T14:31:31.930Z,28.33
2018-02-20T14:34:01.180Z,32.90
2018-02-20T14:36:30.477Z,27.10
2018-02-20T14:38:59.958Z,28.13
2018-02-20T14:41:29.220Z,33.03
2018-02-20T14:43:58.471Z,33.33
2018-02-20T14:46:27.869Z,30.13
2018-02-20T14:48:57.168Z,38.07
2018-02-20T14:51:27.240Z,33.30
2018-02-20T14:53:56.692Z,32.27
2018-02-20T14:56:25.950Z,36.00
2018-02-20T14:58:56.042Z,36.33
2018-02-20T15:01:25.304Z,34.13
2018-02-20T15:03:54.564Z,32.10
2018-02-20T15:06:23.978Z,30.13
2018-02-20T15:08:53.272Z,28.13
2018-02-20T15:11:22.519Z,31.67
2018-02-20T15:13:51.781Z,29.57
2018-02-20T15:16:21.059Z,29.73
2018-02-20T15:18:50.354Z,36.10
2018-02-20T15:21:20.269Z,33.50
2018-02-20T15:23:49.515Z,35.23
2018-02-20T15:26:18.806Z,28.43
2018-02-20T15:28:48.040Z,28.97
2018-02-20T15:31:18.069Z,31.33
2018-02-20T15:33:47.318Z,41.77
2018-02-20T15:36:16.570Z,31.53
2018-02-20T15:38:45.818Z,32.50
2018-02-20T15:41:15.113Z,32.23
2018-02-20T15:43:44.350Z,37.50
2018-02-20T15:46:13.892Z,30.53
2018-02-20T15:48:43.136Z,35.37
2018-02-20T15:51:12.457Z,32.37
2018-02-20T15:53:41.721Z,34.93
2018-02-20T15:56:10.962Z,37.00
2018-02-20T15:58:40.261Z,32.93
2018-02-20T16:01:09.524Z,29.33
2018-02-20T16:03:38.819Z,29.33
2018-02-20T16:06:08.153Z,34.57
2018-02-20T16:08:37.363Z,34.23
2018-02-20T16:11:06.617Z,36.50
2018-02-20T16:13:35.895Z,32.53
2018-02-20T16:16:08.178Z,32.57
2018-02-20T16:18:37.442Z,33.13
2018-02-20T16:21:08.203Z,27.20
2018-02-20T16:23:37.618Z,25.90
2018-02-20T16:26:07.626Z,35.53
2018-02-20T16:28:36.888Z,32.30
2018-02-20T16:31:06.144Z,25.80
2018-02-20T16:33:35.451Z,38.27
2018-02-20T16:36:04.703Z,27.73
2018-02-20T16:38:33.953Z,32.97
2018-02-20T16:41:03.229Z,33.63
2018-02-20T16:43:32.458Z,31.40
2018-02-20T16:46:01.724Z,37.17
2018-02-20T16:48:31.769Z,32.17
2018-02-20T16:51:01.049Z,21.37
2018-02-20T16:53:30.384Z,25.70
2018-02-20T16:55:59.612Z,34.13
2018-02-20T16:58:28.894Z,25.83
2018-02-20T17:00:58.278Z,32.70
2018-02-20T17:03:27.787Z,33.70
2018-02-20T17:05:57.042Z,40.67
2018-02-20T17:08:26.297Z,37.30
2018-02-20T17:10:55.635Z,40.93
2018-02-20T17:13:24.874Z,37.80
2018-02-20T17:15:54.130Z,46.03
2018-02-20T17:18:23.454Z,39.50
2018-02-20T17:20:53.531Z,47.30
2018-02-20T17:23:22.837Z,54.17
2018-02-20T17:25:52.141Z,37.20
2018-02-20T17:28:21.430Z,43.67
2018-02-20T17:30:50.674Z,49.10
2018-02-20T17:33:19.966Z,41.93
2018-02-20T17:35:50.725Z,46.47
2018-02-20T17:38:20.025Z,35.90
2018-02-20T17:40:49.310Z,38.03
2018-02-20T17:43:18.600Z,46.77
2018-02-20T17:45:47.861Z,38.50
2018-02-20T17:48:17.111Z,33.17
2018-02-20T17:50:46.378Z,34.63
2018-02-20T17:53:15.672Z,36.80
2018-02-20T17:55:44.974Z,39.30
2018-02-20T17:58:14.470Z,39.47
2018-02-20T18:00:43.950Z,36.47
2018-02-20T18:03:13.227Z,34.50
2018-02-20T18:05:42.532Z,39.90
2018-02-20T18:08:11.788Z,39.20
2018-02-20T18:10:41.035Z,38.77
2018-02-20T18:13:11.075Z,43.40
2018-02-20T18:15:40.368Z,34.50
2018-02-20T18:18:09.669Z,37.90
2018-02-20T18:20:38.947Z,43.47
2018-02-20T18:23:08.223Z,36.17
2018-02-20T18:25:37.699Z,39.20
2018-02-20T18:28:07.042Z,27.27
2018-02-20T18:30:36.326Z,36.37
2018-02-20T18:33:05.576Z,37.90
2018-02-20T18:35:34.863Z,39.47
2018-02-20T18:38:04.292Z,37.90
2018-02-20T18:40:33.700Z,34.37
2018-02-20T18:43:02.940Z,35.03
2018-02-20T18:45:32.207Z,36.90
2018-02-20T18:48:01.469Z,31.30
2018-02-20T18:50:30.758Z,28.57
2018-02-20T18:53:00.107Z,27.60
2018-02-20T18:55:30.858Z,36.67
2018-02-20T18:58:00.113Z,41.00
2018-02-20T19:00:29.396Z,40.13
2018-02-20T19:02:58.651Z,31.43
2018-02-20T19:05:27.894Z,29.10
2018-02-20T19:07:57.294Z,29.97
2018-02-20T19:10:26.587Z,41.90
2018-02-20T19:12:55.852Z,30.90
2018-02-20T19:15:26.799Z,33.43
2018-02-20T19:17:56.127Z,48.17
2018-02-20T19:20:25.393Z,38.40
2018-02-20T19:22:54.673Z,36.50
2018-02-20T19:25:24.721Z,36.60
2018-02-20T19:27:53.990Z,41.37
2018-02-20T19:30:23.498Z,43.80
2018-02-20T19:32:52.963Z,41.03
2018-02-20T19:35:22.233Z,38.10
2018-02-20T19:37:51.548Z,40.67
2018-02-20T19:40:20.836Z,27.60
2018-02-20T19:42:50.082Z,39.80
2018-02-20T19:45:19.345Z,34.47
2018-02-20T19:47:48.597Z,38.87
2018-02-20T19:50:17.866Z,39.27
2018-02-20T19:52:47.118Z,36.63
2018-02-20T19:55:16.397Z,43.00
2018-02-20T19:57:45.673Z,44.37
2018-02-20T20:00:15.000Z,40.17
2018-02-20T20:02:44.234Z,42.73
2018-02-20T20:05:13.507Z,38.70
2018-02-20T20:07:43.123Z,38.97
2018-02-20T20:10:12.364Z,39.43
2018-02-20T20:12:41.734Z,34.83
2018-02-20T20:15:10.965Z,32.00
2018-02-20T20:17:40.212Z,39.00
2018-02-20T20:20:11.005Z,39.40
2018-02-20T20:22:40.294Z,39.73
2018-02-20T20:25:10.362Z,50.80
2018-02-20T20:27:40.027Z,51.73
2018-02-20T20:30:10.059Z,47.87
2018-02-20T20:32:40.025Z,53.70
2018-02-20T20:35:09.357Z,46.70
2018-02-20T20:37:39.744Z,45.50
2018-02-20T20:40:10.825Z,59.33
2018-02-20T20:42:40.849Z,56.90
2018-02-20T20:45:10.244Z,61.93
2018-02-20T20:47:40.314Z,79.23
2018-02-20T20:50:09.543Z,60.03
2018-02-20T20:52:39.634Z,57.00
2018-02-20T20:55:09.581Z,61.17
2018-02-20T20:57:39.090Z,55.53
2018-02-20T21:00:08.390Z,55.47
2018-02-20T21:02:37.657Z,65.60
2018-02-20T21:05:06.941Z,66.20
2018-02-20T21:07:36.971Z,57.80
2018-02-20T21:10:06.250Z,50.83
2018-02-20T21:12:35.530Z,65.03
2018-02-20T21:15:04.801Z,103.23
2018-02-20T21:17:34.289Z,68.40
2018-02-20T21:20:03.566Z,64.17
2018-02-20T21:22:32.814Z,57.00
2018-02-20T21:25:03.582Z,64.33
2018-02-20T21:27:33.655Z,61.17
2018-02-20T21:30:02.905Z,55.13
2018-02-20T21:32:32.232Z,61.40
2018-02-20T21:35:01.503Z,66.70
2018-02-20T21:37:30.785Z,59.83
2018-02-20T21:40:00.097Z,54.33
2018-02-20T21:42:29.337Z,75.63
2018-02-20T21:44:58.608Z,63.17
2018-02-20T21:47:28.640Z,64.90
2018-02-20T21:49:57.951Z,63.50
2018-02-20T21:52:27.189Z,75.67
2018-02-20T21:54:56.491Z,69.17
2018-02-20T21:57:25.755Z,60.70
2018-02-20T21:59:55.022Z,61.50
2018-02-20T22:02:25.085Z,62.00
2018-02-20T22:04:54.409Z,71.37
2018-02-20T22:07:23.685Z,60.90
2018-02-20T22:09:53.163Z,78.03
2018-02-20T22:12:22.420Z,71.07
2018-02-20T22:14:51.703Z,69.63
2018-02-20T22:17:20.985Z,63.90
2018-02-20T22:19:50.242Z,62.20
2018-02-20T22:22:19.539Z,89.17
2018-02-20T22:24:48.786Z,70.57
2018-02-20T22:27:18.046Z,44.27
2018-02-20T22:29:47.291Z,57.97
2018-02-20T22:32:16.584Z,70.57
2018-02-20T22:34:45.835Z,60.50
2018-02-20T22:37:15.118Z,73.70
2018-02-20T22:39:44.398Z,66.53
2018-02-20T22:42:13.746Z,55.40
2018-02-20T22:44:43.026Z,65.63
2018-02-20T22:47:12.352Z,66.60
2018-02-20T22:49:41.627Z,58.67
2018-02-20T22:52:10.885Z,58.57
2018-02-20T22:54:40.177Z,67.87
2018-02-20T22:57:09.544Z,89.77
2018-02-20T22:59:38.889Z,51.60
2018-02-20T23:02:08.906Z,64.80
2018-02-20T23:04:38.254Z,59.63
2018-02-20T23:07:07.531Z,68.77
2018-02-20T23:09:36.798Z,61.60
2018-02-20T23:12:06.105Z,72.80
2018-02-20T23:14:35.373Z,67.13
2018-02-20T23:17:04.638Z,60.60
2018-02-20T23:19:33.980Z,63.60
2018-02-20T23:22:03.257Z,69.50
2018-02-20T23:24:32.525Z,68.83
2018-02-20T23:27:01.782Z,68.10
2018-02-20T23:29:31.052Z,70.13
2018-02-20T23:32:00.873Z,65.07
2018-02-20T23:34:30.144Z,73.20
2018-02-20T23:36:59.479Z,60.53
2018-02-20T23:39:28.862Z,65.87
2018-02-20T23:41:58.251Z,57.50
2018-02-20T23:44:27.518Z,68.87
2018-02-20T23:46:56.782Z,88.20
2018-02-20T23:49:26.846Z,75.80
2018-02-20T23:51:56.110Z,69.17
2018-02-20T23:54:25.396Z,74.60
2018-02-20T23:56:54.648Z,62.30
2018-02-20T23:59:24.697Z,67.60
